Dexter, Kansas
Current Conditions -  °F | °C
As of 6:54 AM on Saturday 01 Nov 2014 (Local Time) from KWLD Reporting Station
Clear Clear  
Wind Chill: 24°   Ceiling: Unl
Heat Index: 30°   Visibility: 10mi
Dew Point: 20°   Wind: 6mph
Humidity: 66%   Direction: 120°ESE
Pressure: 30.42"   Gusts: NA
Location:  37.18°N, 96.71°W
Report Text: KWLD 011154Z AUTO 12005KT 10SM CLR M01/M07 A3042 RMK AO2 SLP310 T10111067 10006 21033 56004
Loading
Personal Weather Stations






























Interactive Weather Map
Tropical Storm Tracking
New forecast layout! Learn more

10-Day Weather Forecast

Advertisements
Track Severe Weather on mobile